createdAt,value
2018-06-24T00:02:52.257Z,101827.62
2018-06-24T00:05:56.648Z,101824.97
2018-06-24T00:09:01.012Z,101827.70
2018-06-24T00:12:05.371Z,101822.46
2018-06-24T00:15:09.524Z,101817.63
2018-06-24T00:18:13.911Z,101825.11
2018-06-24T00:21:18.306Z,101833.89
2018-06-24T00:24:22.717Z,101837.77
2018-06-24T00:27:27.161Z,101836.19
2018-06-24T00:30:31.545Z,101829.58
2018-06-24T00:33:35.918Z,101829.06
2018-06-24T00:36:40.293Z,101819.52
2018-06-24T00:39:44.654Z,101821.52
2018-06-24T00:42:49.037Z,101822.85
2018-06-24T00:45:53.412Z,101819.71
2018-06-24T00:48:57.777Z,101827.05
2018-06-24T00:52:02.141Z,101821.17
2018-06-24T00:55:06.525Z,101828.05
2018-06-24T00:58:10.890Z,101827.42
2018-06-24T01:01:15.264Z,101826.80
2018-06-24T01:04:20.473Z,101830.89
2018-06-24T01:07:24.849Z,101822.39
2018-06-24T01:10:29.209Z,101827.52
2018-06-24T01:13:33.320Z,101828.88
2018-06-24T01:16:37.725Z,101824.70
2018-06-24T01:19:42.073Z,101829.44
2018-06-24T01:22:46.478Z,101817.58
2018-06-24T01:25:50.853Z,101815.89
2018-06-24T01:28:55.216Z,101814.30
2018-06-24T01:31:59.581Z,101813.70
2018-06-24T01:35:04.047Z,101812.73
2018-06-24T01:38:08.481Z,101806.13
2018-06-24T01:41:12.845Z,101803.81
2018-06-24T01:44:17.204Z,101800.78
2018-06-24T01:47:21.572Z,101801.70
2018-06-24T01:50:25.936Z,101800.34
2018-06-24T01:53:30.284Z,101797.33
2018-06-24T01:56:34.658Z,101795.75
2018-06-24T01:59:39.064Z,101796.69
2018-06-24T02:02:43.498Z,101790.67
2018-06-24T02:05:47.877Z,101788.38
2018-06-24T02:08:52.225Z,101788.59
2018-06-24T02:11:56.585Z,101789.97
2018-06-24T02:15:00.929Z,101788.38
2018-06-24T02:18:05.405Z,101789.45
2018-06-24T02:21:09.776Z,101784.84
2018-06-24T02:24:14.144Z,101776.32
2018-06-24T02:27:18.489Z,101776.73
2018-06-24T02:30:22.866Z,101774.00
2018-06-24T02:33:27.252Z,101764.97
2018-06-24T02:36:31.628Z,101764.04
2018-06-24T02:39:36.010Z,101759.21
2018-06-24T02:42:40.394Z,101759.84
2018-06-24T02:45:44.806Z,101768.45
2018-06-24T02:48:49.163Z,101766.03
2018-06-24T02:51:53.582Z,101761.09
2018-06-24T02:54:57.937Z,101763.22
2018-06-24T02:58:02.306Z,101756.92
2018-06-24T03:01:06.674Z,101756.63
2018-06-24T03:04:11.058Z,101762.89
2018-06-24T03:07:15.433Z,101757.35
2018-06-24T03:10:19.838Z,101754.27
2018-06-24T03:13:24.220Z,101753.84
2018-06-24T03:16:28.585Z,101752.69
2018-06-24T03:19:32.958Z,101752.91
2018-06-24T03:22:37.352Z,101753.13
2018-06-24T03:25:41.703Z,101758.99
2018-06-24T03:28:46.069Z,101761.64
2018-06-24T03:31:50.517Z,101755.64
2018-06-24T03:34:54.925Z,101760.58
2018-06-24T03:37:59.289Z,101756.27
2018-06-24T03:41:03.652Z,101750.89
2018-06-24T03:44:08.338Z,101754.58
2018-06-24T03:47:12.713Z,101755.17
2018-06-24T03:50:17.093Z,101743.45
2018-06-24T03:53:21.464Z,101746.66
2018-06-24T03:56:25.922Z,101747.59
2018-06-24T03:59:30.265Z,101745.81
2018-06-24T04:02:34.626Z,101750.34
2018-06-24T04:05:38.960Z,101751.71
2018-06-24T04:08:43.330Z,101752.13
2018-06-24T04:11:47.722Z,101755.02
2018-06-24T04:14:52.129Z,101754.77
2018-06-24T04:17:56.472Z,101758.05
2018-06-24T04:21:00.841Z,101755.31
2018-06-24T04:24:05.236Z,101757.20
2018-06-24T04:27:09.601Z,101757.39
2018-06-24T04:30:13.963Z,101754.44
2018-06-24T04:33:18.369Z,101753.88
2018-06-24T04:36:22.779Z,101759.34
2018-06-24T04:39:27.177Z,101755.17
2018-06-24T04:42:31.546Z,101757.98
2018-06-24T04:45:35.884Z,101764.81
2018-06-24T04:48:40.265Z,101765.77
2018-06-24T04:51:44.729Z,101754.41
2018-06-24T04:54:49.018Z,101761.60
2018-06-24T04:57:53.412Z,101752.53
2018-06-24T05:00:57.792Z,101745.29
2018-06-24T05:04:02.165Z,101750.42
2018-06-24T05:07:06.521Z,101753.81
2018-06-24T05:10:10.880Z,101755.19
2018-06-24T05:13:15.284Z,101762.09
2018-06-24T05:16:19.629Z,101764.19
2018-06-24T05:19:24.010Z,101765.85
2018-06-24T05:22:28.361Z,101771.36
2018-06-24T05:25:32.725Z,101778.29
2018-06-24T05:28:37.088Z,101779.95
2018-06-24T05:31:41.446Z,101773.34
2018-06-24T05:34:45.819Z,101774.97
2018-06-24T05:37:50.203Z,101778.63
2018-06-24T05:40:54.549Z,101777.41
2018-06-24T05:43:58.908Z,101775.67
2018-06-24T05:47:03.288Z,101773.41
2018-06-24T05:50:07.664Z,101775.41
2018-06-24T05:53:12.033Z,101769.49
2018-06-24T05:56:16.421Z,101767.91
2018-06-24T05:59:20.794Z,101775.70
2018-06-24T06:02:25.178Z,101767.38
2018-06-24T06:05:29.549Z,101765.80
2018-06-24T06:08:33.948Z,101766.02
2018-06-24T06:11:38.400Z,101764.65
2018-06-24T06:14:42.890Z,101758.41
2018-06-24T06:17:47.257Z,101754.94
2018-06-24T06:20:51.612Z,101761.27
2018-06-24T06:23:55.968Z,101749.44
2018-06-24T06:27:00.344Z,101752.16
2018-06-24T06:30:05.188Z,101749.77
2018-06-24T06:33:09.570Z,101751.36
2018-06-24T06:36:13.986Z,101756.50
2018-06-24T06:39:18.353Z,101753.41
2018-06-24T06:42:22.709Z,101751.13
2018-06-24T06:45:27.166Z,101747.77
2018-06-24T06:48:31.504Z,101751.19
2018-06-24T06:51:35.868Z,101755.00
2018-06-24T06:54:40.240Z,101748.44
2018-06-24T06:57:44.644Z,101753.22
2018-06-24T07:00:49.089Z,101748.34
2018-06-24T07:03:53.509Z,101758.02
2018-06-24T07:06:57.966Z,101764.80
2018-06-24T07:10:02.338Z,101761.45
2018-06-24T07:13:06.829Z,101760.83
2018-06-24T07:16:11.201Z,101765.09
2018-06-24T07:19:15.605Z,101769.20
2018-06-24T07:22:20.031Z,101765.95
2018-06-24T07:25:24.434Z,101759.70
2018-06-24T07:28:28.809Z,101759.92
2018-06-24T07:31:33.172Z,101758.95
2018-06-24T07:34:37.522Z,101754.56
2018-06-24T07:37:41.901Z,101740.97
2018-06-24T07:40:46.249Z,101738.69
2018-06-24T07:43:50.718Z,101745.98
2018-06-24T07:46:55.113Z,101739.98
2018-06-24T07:49:59.521Z,101748.58
2018-06-24T07:53:04.437Z,101742.41
2018-06-24T07:56:08.819Z,101743.84
2018-06-24T07:59:13.172Z,101741.63
2018-06-24T08:02:17.617Z,101746.97
2018-06-24T08:05:22.101Z,101733.20
2018-06-24T08:08:26.365Z,101717.48
2018-06-24T08:11:30.750Z,101726.22
2018-06-24T08:14:35.120Z,101726.13
2018-06-24T08:17:39.510Z,101728.96
2018-06-24T08:20:43.876Z,101731.64
2018-06-24T08:23:48.320Z,101728.64
2018-06-24T08:26:53.169Z,101734.81
2018-06-24T08:29:57.582Z,101738.34
2018-06-24T08:33:02.289Z,101739.30
2018-06-24T08:36:06.885Z,101741.05
2018-06-24T08:39:12.091Z,101744.66
2018-06-24T08:42:16.509Z,101742.09
2018-06-24T08:45:20.954Z,101735.48
2018-06-24T08:48:25.409Z,101742.56
2018-06-24T08:51:29.789Z,101743.14
2018-06-24T08:54:35.646Z,101743.05
2018-06-24T08:57:40.321Z,101751.56
2018-06-24T09:00:45.052Z,101749.63
2018-06-24T09:03:49.405Z,101746.84
2018-06-24T09:06:55.301Z,101754.89
2018-06-24T09:09:59.675Z,101749.41
2018-06-24T09:13:04.084Z,101755.99
2018-06-24T09:16:11.086Z,101760.33
2018-06-24T09:19:25.367Z,101750.53
2018-06-24T09:22:36.424Z,101756.13
2018-06-24T09:25:40.909Z,101757.67
2018-06-24T09:28:45.305Z,101755.53
2018-06-24T09:31:49.672Z,101752.97
2018-06-24T09:34:54.080Z,101751.33
2018-06-24T09:37:58.479Z,101757.89
2018-06-24T09:41:02.892Z,101755.70
2018-06-24T09:44:07.385Z,101751.77
2018-06-24T09:47:11.808Z,101759.52
2018-06-24T09:50:16.204Z,101755.28
2018-06-24T09:53:21.014Z,101765.96
2018-06-24T09:56:26.521Z,101768.09
2018-06-24T09:59:34.757Z,101765.22
2018-06-24T10:02:45.109Z,101762.16
2018-06-24T10:05:51.323Z,101767.72
2018-06-24T10:08:55.917Z,101775.42
2018-06-24T10:12:00.286Z,101781.34
2018-06-24T10:15:04.710Z,101768.96
2018-06-24T10:18:09.164Z,101768.99
2018-06-24T10:21:13.532Z,101771.63
2018-06-24T10:24:17.900Z,101766.38
2018-06-24T10:27:22.273Z,101765.83
2018-06-24T10:30:26.614Z,101780.20
2018-06-24T10:33:31.013Z,101778.84
2018-06-24T10:36:35.389Z,101773.92
2018-06-24T10:39:39.773Z,101772.92
2018-06-24T10:42:44.144Z,101777.09
2018-06-24T10:45:48.570Z,101768.57
2018-06-24T10:48:53.003Z,101780.67
2018-06-24T10:52:05.052Z,101774.05
2018-06-24T10:55:09.729Z,101768.91
2018-06-24T10:58:14.152Z,101774.97
2018-06-24T11:01:18.599Z,101769.00
2018-06-24T11:04:23.113Z,101775.90
2018-06-24T11:07:27.488Z,101775.95
2018-06-24T11:10:31.913Z,101781.86
2018-06-24T11:13:36.296Z,101773.73
2018-06-24T11:16:40.686Z,101768.52
2018-06-24T11:19:45.343Z,101773.27
2018-06-24T11:22:49.765Z,101770.13
2018-06-24T11:25:54.200Z,101777.16
2018-06-24T11:28:58.581Z,101775.37
2018-06-24T11:32:03.377Z,101775.58
2018-06-24T11:35:07.826Z,101786.42
2018-06-24T11:38:12.197Z,101784.23
2018-06-24T11:41:16.561Z,101778.27
2018-06-24T11:44:20.933Z,101782.91
2018-06-24T11:47:25.337Z,101780.09
2018-06-24T11:50:29.701Z,101776.66
2018-06-24T11:53:34.062Z,101778.11
2018-06-24T11:56:38.440Z,101775.73
2018-06-24T11:59:42.828Z,101776.08
2018-06-24T12:02:47.290Z,101773.45
2018-06-24T12:05:51.620Z,101779.06
2018-06-24T12:08:55.980Z,101779.91
2018-06-24T12:12:00.381Z,101781.09
2018-06-24T12:15:04.837Z,101785.28
2018-06-24T12:18:09.229Z,101789.97
2018-06-24T12:21:13.596Z,101784.27
2018-06-24T12:24:17.983Z,101783.13
2018-06-24T12:27:22.349Z,101776.69
2018-06-24T12:30:26.737Z,101778.63
2018-06-24T12:33:31.104Z,101766.68
2018-06-24T12:36:40.020Z,101771.00
2018-06-24T12:39:44.396Z,101763.73
2018-06-24T12:42:48.848Z,101771.56
2018-06-24T12:45:53.205Z,101770.27
2018-06-24T12:48:57.578Z,101756.02
2018-06-24T12:52:01.996Z,101757.55
2018-06-24T12:55:06.423Z,101766.59
2018-06-24T12:58:10.849Z,101761.72
2018-06-24T13:01:15.180Z,101761.63
2018-06-24T13:04:19.561Z,101766.27
2018-06-24T13:07:23.934Z,101756.34
2018-06-24T13:10:28.420Z,101750.00
2018-06-24T13:13:32.778Z,101752.72
2018-06-24T13:16:37.195Z,101753.91
2018-06-24T13:19:41.549Z,101755.42
2018-06-24T13:22:45.965Z,101758.07
2018-06-24T13:25:50.353Z,101752.33
2018-06-24T13:28:54.738Z,101751.30
2018-06-24T13:31:59.155Z,101753.38
2018-06-24T13:35:03.517Z,101760.00
2018-06-24T13:38:07.901Z,101759.12
2018-06-24T13:41:12.277Z,101762.63
2018-06-24T13:44:16.641Z,101758.61
2018-06-24T13:47:21.009Z,101757.52
2018-06-24T13:50:25.372Z,101765.77
2018-06-24T13:53:29.742Z,101768.39
2018-06-24T13:56:34.106Z,101762.60
2018-06-24T13:59:38.473Z,101774.57
2018-06-24T14:02:42.853Z,101766.08
2018-06-24T14:05:47.368Z,101760.05
2018-06-24T14:08:51.749Z,101759.37
2018-06-24T14:11:56.153Z,101764.38
2018-06-24T14:15:00.541Z,101760.44
2018-06-24T14:18:04.921Z,101761.91
2018-06-24T14:21:09.325Z,101759.53
2018-06-24T14:24:13.708Z,101756.66
2018-06-24T14:27:18.144Z,101763.76
2018-06-24T14:30:22.573Z,101759.83
2018-06-24T14:33:26.954Z,101758.03
2018-06-24T14:36:31.331Z,101758.96
2018-06-24T14:39:35.725Z,101755.03
2018-06-24T14:42:40.124Z,101757.92
2018-06-24T14:45:44.518Z,101759.60
2018-06-24T14:48:48.861Z,101755.30
2018-06-24T14:51:53.265Z,101762.80
2018-06-24T14:54:57.639Z,101760.55
2018-06-24T14:58:02.040Z,101762.08
2018-06-24T15:01:06.433Z,101760.84
2018-06-24T15:04:10.821Z,101757.31
2018-06-24T15:07:15.182Z,101758.58
2018-06-24T15:10:19.560Z,101761.16
2018-06-24T15:13:24.089Z,101759.51
2018-06-24T15:16:28.468Z,101761.75
2018-06-24T15:19:32.878Z,101768.41
2018-06-24T15:22:37.293Z,101754.38
2018-06-24T15:25:41.706Z,101754.05
2018-06-24T15:28:46.646Z,101759.82
2018-06-24T15:31:51.022Z,101760.24
2018-06-24T15:34:55.137Z,101749.37
2018-06-24T15:37:59.514Z,101747.39
2018-06-24T15:41:03.908Z,101745.86
2018-06-24T15:44:08.368Z,101750.72
2018-06-24T15:47:12.922Z,101753.56
2018-06-24T15:50:17.337Z,101750.84
2018-06-24T15:53:21.729Z,101746.89
2018-06-24T15:56:26.109Z,101752.23
2018-06-24T15:59:30.477Z,101747.84
2018-06-24T16:02:34.846Z,101742.68
2018-06-24T16:05:39.335Z,101735.19
2018-06-24T16:08:43.696Z,101747.36
2018-06-24T16:11:48.081Z,101753.71
2018-06-24T16:14:52.462Z,101740.32
2018-06-24T16:17:56.841Z,101743.00
2018-06-24T16:21:01.275Z,101745.89
2018-06-24T16:24:05.437Z,101743.72
2018-06-24T16:27:09.937Z,101741.02
2018-06-24T16:30:14.334Z,101746.34
2018-06-24T16:33:18.747Z,101743.19
2018-06-24T16:36:23.125Z,101750.15
2018-06-24T16:39:27.620Z,101746.14
2018-06-24T16:42:32.006Z,101739.44
2018-06-24T16:45:36.417Z,101749.78
2018-06-24T16:48:41.039Z,101738.80
2018-06-24T16:51:47.746Z,101737.22
2018-06-24T16:54:52.148Z,101743.89
2018-06-24T16:57:56.569Z,101743.08
2018-06-24T17:01:00.972Z,101743.89
2018-06-24T17:04:05.457Z,101745.91
2018-06-24T17:07:09.857Z,101744.98
2018-06-24T17:10:14.236Z,101740.83
2018-06-24T17:13:18.606Z,101735.20
2018-06-24T17:16:23.064Z,101741.14
2018-06-24T17:19:27.441Z,101745.58
2018-06-24T17:22:31.817Z,101736.88
2018-06-24T17:25:36.198Z,101745.84
2018-06-24T17:28:40.596Z,101738.05
2018-06-24T17:31:45.015Z,101734.04
2018-06-24T17:34:49.485Z,101732.42
2018-06-24T17:37:53.994Z,101736.44
2018-06-24T17:40:58.508Z,101730.62
2018-06-24T17:44:02.953Z,101734.25
2018-06-24T17:47:07.613Z,101737.02
2018-06-24T17:50:11.993Z,101730.96
2018-06-24T17:53:16.399Z,101740.70
2018-06-24T17:56:20.777Z,101739.58
2018-06-24T17:59:25.149Z,101736.76
2018-06-24T18:02:29.324Z,101736.84
2018-06-24T18:05:33.690Z,101743.11
2018-06-24T18:08:38.038Z,101733.66
2018-06-24T18:11:42.408Z,101738.70
2018-06-24T18:14:46.786Z,101741.41
2018-06-24T18:17:51.165Z,101744.11
2018-06-24T18:20:55.553Z,101748.87
2018-06-24T18:23:59.977Z,101747.94
2018-06-24T18:27:04.674Z,101740.83
2018-06-24T18:30:09.065Z,101744.87
2018-06-24T18:33:13.557Z,101744.45
2018-06-24T18:36:17.877Z,101745.75
2018-06-24T18:39:22.241Z,101746.35
2018-06-24T18:42:26.613Z,101753.32
2018-06-24T18:45:31.386Z,101756.59
2018-06-24T18:48:35.809Z,101752.14
2018-06-24T18:51:40.893Z,101754.99
2018-06-24T18:54:45.309Z,101754.70
2018-06-24T18:57:49.689Z,101756.31
2018-06-24T19:00:54.086Z,101758.73
2018-06-24T19:03:58.458Z,101760.95
2018-06-24T19:07:02.912Z,101755.52
2018-06-24T19:10:07.270Z,101759.50
2018-06-24T19:13:11.745Z,101761.16
2018-06-24T19:16:16.432Z,101771.08
2018-06-24T19:19:20.836Z,101774.34
2018-06-24T19:22:25.261Z,101776.47
2018-06-24T19:25:29.372Z,101776.47
2018-06-24T19:28:33.768Z,101780.59
2018-06-24T19:31:38.142Z,101775.58
2018-06-24T19:34:42.573Z,101773.68
2018-06-24T19:37:46.952Z,101779.20
2018-06-24T19:40:51.317Z,101774.56
2018-06-24T19:43:55.727Z,101781.50
2018-06-24T19:47:02.480Z,101782.81
2018-06-24T19:50:06.914Z,101782.44
2018-06-24T19:53:11.328Z,101775.30
2018-06-24T19:56:15.712Z,101771.27
2018-06-24T19:59:20.128Z,101782.05
2018-06-24T20:02:24.506Z,101786.33
2018-06-24T20:05:28.897Z,101784.52
2018-06-24T20:08:33.296Z,101787.02
2018-06-24T20:11:37.843Z,101783.38
2018-06-24T20:14:42.310Z,101787.62
2018-06-24T20:17:46.837Z,101788.92
2018-06-24T20:20:51.366Z,101792.87
2018-06-24T20:23:55.741Z,101795.78
2018-06-24T20:27:00.133Z,101794.94
2018-06-24T20:30:05.108Z,101796.41
2018-06-24T20:33:09.501Z,101796.24
2018-06-24T20:36:13.898Z,101796.77
2018-06-24T20:39:18.273Z,101794.09
2018-06-24T20:42:23.453Z,101800.78
2018-06-24T20:45:27.866Z,101805.67
2018-06-24T20:48:32.225Z,101805.05
2018-06-24T20:51:36.605Z,101811.50
2018-06-24T20:54:40.989Z,101809.38
2018-06-24T20:57:45.337Z,101813.72
2018-06-24T21:00:49.747Z,101808.92
2018-06-24T21:03:54.153Z,101810.75
2018-06-24T21:06:58.705Z,101817.19
2018-06-24T21:10:03.084Z,101815.36
2018-06-24T21:13:07.456Z,101811.61
2018-06-24T21:16:11.856Z,101815.25
2018-06-24T21:19:16.214Z,101807.02
2018-06-24T21:22:20.615Z,101809.06
2018-06-24T21:25:25.041Z,101807.75
2018-06-24T21:28:29.401Z,101813.78
2018-06-24T21:31:33.859Z,101808.88
2018-06-24T21:34:38.232Z,101817.75
2018-06-24T21:37:42.608Z,101819.49
2018-06-24T21:40:46.976Z,101824.00
2018-06-24T21:43:51.385Z,101823.48
2018-06-24T21:46:55.790Z,101830.53
2018-06-24T21:50:00.158Z,101834.13
2018-06-24T21:53:04.545Z,101834.86
2018-06-24T21:56:08.909Z,101836.38
2018-06-24T21:59:13.284Z,101834.72
2018-06-24T22:02:17.653Z,101838.88
2018-06-24T22:05:22.032Z,101832.08
2018-06-24T22:08:26.386Z,101834.11
2018-06-24T22:11:30.764Z,101829.68
2018-06-24T22:14:34.880Z,101825.28
2018-06-24T22:17:39.249Z,101824.98
2018-06-24T22:20:43.608Z,101819.33
2018-06-24T22:23:47.975Z,101820.51
2018-06-24T22:26:52.376Z,101822.09
2018-06-24T22:29:56.737Z,101820.73
2018-06-24T22:33:01.104Z,101812.09
2018-06-24T22:36:05.501Z,101810.84
2018-06-24T22:39:11.764Z,101817.45
2018-06-24T22:42:16.166Z,101810.51
2018-06-24T22:45:20.565Z,101822.17
2018-06-24T22:48:24.941Z,101821.58
2018-06-24T22:51:29.342Z,101818.00
2018-06-24T22:54:33.705Z,101813.68
2018-06-24T22:57:38.057Z,101816.63
2018-06-24T23:00:42.465Z,101816.63
2018-06-24T23:03:46.817Z,101824.30
2018-06-24T23:06:51.319Z,101824.74
2018-06-24T23:09:55.607Z,101823.37
2018-06-24T23:12:59.985Z,101827.91
2018-06-24T23:16:04.353Z,101827.28
2018-06-24T23:19:08.733Z,101830.02
2018-06-24T23:22:13.109Z,101832.96
2018-06-24T23:25:17.506Z,101829.28
2018-06-24T23:28:21.874Z,101831.16
2018-06-24T23:31:26.283Z,101821.60
2018-06-24T23:34:30.678Z,101817.59
2018-06-24T23:37:35.076Z,101823.45
2018-06-24T23:40:39.421Z,101826.63
2018-06-24T23:43:43.946Z,101823.59
2018-06-24T23:46:48.313Z,101835.75
2018-06-24T23:49:52.685Z,101834.60
2018-06-24T23:52:57.037Z,101830.20
2018-06-24T23:56:01.403Z,101823.37
2018-06-24T23:59:05.921Z,101825.70
